Time;durP1;ratioP1;P1;durP2;ratioP2;P2;SDS_P1;SDS_P2;PMS_P1;PMS_P2;Temp;Humidity;BMP_temperature;BMP_pressure;BME280_temperature;BME280_humidity;BME280_pressure;Samples;Min_cycle;Max_cycle;Signal;HPM_P1;HPM_P2
2021/07/25 00:00:10;;;;;;;16.38;10.15;;;;;;;20.59;96.85;97539.63;5052253;28;20044;-79
2021/07/25 00:02:36;;;;;;;13.57;9.63;;;;;;;20.53;95.33;97543.88;5050986;28;20029;-78
2021/07/25 00:05:04;;;;;;;11.05;9.60;;;;;;;20.53;96.15;97533.59;5050964;28;20025;-79
2021/07/25 00:07:30;;;;;;;12.75;8.90;;;;;;;20.52;96.73;97533.94;5034937;28;20032;-81
2021/07/25 00:09:55;;;;;;;11.35;9.07;;;;;;;20.45;95.63;97534.63;5050335;28;20029;-80
2021/07/25 00:12:20;;;;;;;14.88;10.38;;;;;;;20.48;96.57;97553.34;5051018;28;20033;-78
2021/07/25 00:14:46;;;;;;;10.70;9.60;;;;;;;20.43;97.20;97553.63;5050697;28;20047;-78
2021/07/25 00:17:11;;;;;;;11.32;9.88;;;;;;;20.46;98.05;97554.88;5052166;28;20044;-78
2021/07/25 00:19:37;;;;;;;10.82;8.73;;;;;;;20.43;98.98;97542.53;5051970;28;20058;-78
2021/07/25 00:22:06;;;;;;;10.80;8.98;;;;;;;20.38;98.86;97547.59;5049943;28;20127;-81
2021/07/25 00:24:34;;;;;;;10.90;9.20;;;;;;;20.26;97.24;97535.50;5050481;28;20056;-80
2021/07/25 00:27:00;;;;;;;11.05;8.70;;;;;;;20.28;97.44;97535.91;5051691;28;20017;-80
2021/07/25 00:29:30;;;;;;;10.15;8.48;;;;;;;20.22;96.81;97529.03;5050576;28;20385;-79
2021/07/25 00:32:04;;;;;;;11.30;8.95;;;;;;;20.29;96.92;97548.66;5050610;28;20393;-79
2021/07/25 00:34:30;;;;;;;13.02;9.68;;;;;;;20.26;96.66;97518.81;5051806;28;20100;-78
2021/07/25 00:36:56;;;;;;;10.85;9.75;;;;;;;20.23;96.55;97518.72;5050883;28;20486;-80
2021/07/25 00:39:21;;;;;;;9.48;8.48;;;;;;;20.32;95.38;97529.63;5050114;28;20139;-79
2021/07/25 00:41:47;;;;;;;10.00;9.00;;;;;;;20.34;95.07;97532.81;5050311;28;20057;-80
2021/07/25 00:44:12;;;;;;;13.68;8.95;;;;;;;20.32;95.85;97537.94;5050314;28;20086;-77
2021/07/25 00:46:38;;;;;;;12.60;9.23;;;;;;;20.23;95.02;97536.19;5049964;28;20033;-79
2021/07/25 00:49:03;;;;;;;13.70;8.57;;;;;;;20.17;95.77;97523.75;5050333;28;20055;-79
2021/07/25 00:51:30;;;;;;;10.43;8.57;;;;;;;20.16;95.83;97526.91;5050913;28;20433;-80
2021/07/25 00:53:55;;;;;;;9.77;8.55;;;;;;;20.12;96.11;97520.47;5051019;28;20053;-80
2021/07/25 00:56:21;;;;;;;9.50;8.10;;;;;;;20.10;95.65;97518.09;5049892;28;20079;-78
2021/07/25 00:58:46;;;;;;;10.02;8.43;;;;;;;20.12;94.31;97515.75;5049974;28;20025;-79
2021/07/25 01:01:13;;;;;;;11.52;9.30;;;;;;;20.12;94.60;97509.38;5050805;28;20383;-80
2021/07/25 01:03:57;;;;;;;11.13;8.90;;;;;;;20.14;94.97;97509.81;5049727;28;20032;-78
2021/07/25 01:06:33;;;;;;;9.88;7.97;;;;;;;20.16;94.17;97519.41;5051594;28;20124;-80
2021/07/25 01:09:08;;;;;;;14.18;8.98;;;;;;;20.15;95.35;97509.44;5051056;28;20029;-80
2021/07/25 01:11:56;;;;;;;11.85;8.55;;;;;;;20.14;95.06;97509.81;5051043;28;20025;-78
2021/07/25 01:14:27;;;;;;;9.80;8.63;;;;;;;20.19;95.56;97510.31;5050938;28;20057;-78
2021/07/25 01:16:52;;;;;;;9.80;8.18;;;;;;;20.11;94.13;97513.34;5051005;28;20028;-78
2021/07/25 01:19:18;;;;;;;13.90;9.07;;;;;;;20.13;96.20;97497.09;5049652;28;20536;-78
2021/07/25 01:21:43;;;;;;;12.50;8.45;;;;;;;20.06;95.29;97489.44;5050838;28;20385;-78
2021/07/25 01:24:09;;;;;;;11.98;8.85;;;;;;;20.04;95.79;97502.09;5049291;28;20029;-79
2021/07/25 01:26:39;;;;;;;10.38;8.45;;;;;;;20.03;95.67;97494.94;5049547;28;20074;-81
2021/07/25 01:29:05;;;;;;;11.30;8.27;;;;;;;20.01;95.36;97495.31;5049518;28;20056;-80
2021/07/25 01:31:37;;;;;;;13.80;9.88;;;;;;;20.11;97.21;97503.00;5049532;28;20064;-80
2021/07/25 01:34:03;;;;;;;9.57;8.38;;;;;;;20.06;96.37;97500.56;5051032;28;20028;-80
2021/07/25 01:36:30;;;;;;;10.45;8.77;;;;;;;19.97;96.35;97499.97;5049621;28;20025;-78
2021/07/25 01:38:56;;;;;;;10.57;8.70;;;;;;;20.28;96.01;97496.22;5050967;28;20033;-78
2021/07/25 01:41:22;;;;;;;11.70;9.68;;;;;;;20.27;95.69;97502.94;5050762;28;20048;-79
2021/07/25 01:43:51;;;;;;;10.20;8.30;;;;;;;20.00;96.90;97502.03;5050665;28;20025;-78
2021/07/25 01:46:17;;;;;;;14.02;9.52;;;;;;;19.84;97.36;97506.88;5050681;28;20025;-78
2021/07/25 01:48:43;;;;;;;14.73;8.88;;;;;;;19.74;97.78;97499.94;5048979;28;20039;-78
2021/07/25 01:51:11;;;;;;;14.65;9.85;;;;;;;19.75;96.82;97500.72;5049141;28;20081;-78
2021/07/25 01:53:36;;;;;;;12.43;10.82;;;;;;;19.71;97.33;97499.84;5050138;28;20017;-78
2021/07/25 01:56:02;;;;;;;11.70;9.50;;;;;;;19.73;97.95;97492.75;5048963;28;20045;-79
2021/07/25 01:58:28;;;;;;;13.60;11.13;;;;;;;19.73;98.57;97501.09;5049167;28;20018;-78
2021/07/25 02:00:54;;;;;;;12.18;9.68;;;;;;;19.71;99.37;97497.88;5049130;28;20029;-79
2021/07/25 02:03:24;;;;;;;19.00;11.18;;;;;;;19.68;99.09;97489.47;5051499;28;20025;-80
2021/07/25 02:05:50;;;;;;;14.05;10.98;;;;;;;19.69;99.16;97502.19;5054379;28;20426;-78
2021/07/25 02:08:16;;;;;;;15.45;10.88;;;;;;;19.71;99.49;97497.06;5053221;28;20044;-79
2021/07/25 02:10:43;;;;;;;15.18;11.27;;;;;;;19.68;99.47;97497.81;5053258;28;20074;-77
2021/07/25 02:13:09;;;;;;;18.25;10.40;;;;;;;19.63;99.21;97490.59;5053077;28;20366;-79
2021/07/25 02:15:34;;;;;;;14.73;10.77;;;;;;;19.60;99.98;97496.06;5053310;28;20032;-78
2021/07/25 02:18:00;;;;;;;13.20;10.35;;;;;;;19.58;100.00;97496.41;5055015;28;20039;-80
2021/07/25 02:20:25;;;;;;;15.00;10.85;;;;;;;19.57;100.00;97499.56;5052695;28;20037;-78
2021/07/25 02:22:50;;;;;;;12.35;10.65;;;;;;;19.67;100.00;97501.78;5052841;28;20032;-77
2021/07/25 02:25:16;;;;;;;14.18;11.40;;;;;;;19.76;100.00;97502.34;5052593;28;20056;-80
2021/07/25 02:27:41;;;;;;;11.93;10.68;;;;;;;19.72;100.00;97504.25;5052633;28;20111;-77
2021/07/25 02:30:07;;;;;;;16.60;10.70;;;;;;;19.77;99.72;97504.75;5053796;28;20482;-79
2021/07/25 02:32:32;;;;;;;14.68;11.75;;;;;;;19.66;100.00;97503.75;5054021;28;20474;-79
2021/07/25 02:34:58;;;;;;;18.88;11.98;;;;;;;19.72;100.00;97509.78;5052497;28;21422;-78
2021/07/25 02:37:23;;;;;;;13.55;11.80;;;;;;;19.85;100.00;97505.69;5054020;28;20540;-79
2021/07/25 02:39:48;;;;;;;14.05;10.75;;;;;;;19.76;100.00;97507.91;5053705;28;20036;-77
2021/07/25 02:42:19;;;;;;;15.70;11.73;;;;;;;19.70;100.00;97506.59;5053615;28;20071;-79
2021/07/25 02:44:45;;;;;;;15.50;10.82;;;;;;;19.71;100.00;97508.19;5052328;28;20044;-81
2021/07/25 02:47:10;;;;;;;16.40;11.68;;;;;;;19.74;100.00;97507.44;5053458;28;20029;-78
2021/07/25 02:49:36;;;;;;;12.55;11.00;;;;;;;19.70;100.00;97514.91;5052140;28;20119;-78
2021/07/25 02:52:02;;;;;;;11.45;9.90;;;;;;;19.69;100.00;97508.56;5052168;28;21062;-78
2021/07/25 02:54:28;;;;;;;13.13;11.20;;;;;;;19.70;99.94;97509.38;5053525;28;20041;-79
2021/07/25 02:56:54;;;;;;;16.23;11.80;;;;;;;19.64;100.00;97499.72;5053652;28;20029;-77
2021/07/25 02:59:19;;;;;;;13.00;11.60;;;;;;;19.62;100.00;97497.31;5053405;28;20398;-78
2021/07/25 03:01:45;;;;;;;13.32;10.18;;;;;;;19.67;99.97;97505.31;5052267;28;20116;-79
2021/07/25 03:04:11;;;;;;;13.75;10.80;;;;;;;19.74;100.00;97504.66;5051845;28;20025;-77
2021/07/25 03:06:36;;;;;;;12.57;10.98;;;;;;;19.70;100.00;97499.03;5052034;28;20017;-80
2021/07/25 03:09:02;;;;;;;13.50;11.35;;;;;;;19.73;99.59;97503.09;5051808;28;20033;-78
2021/07/25 03:11:27;;;;;;;13.93;11.73;;;;;;;19.66;100.00;97502.94;5051859;28;20028;-78
2021/07/25 03:13:53;;;;;;;14.25;10.90;;;;;;;19.57;100.00;97499.56;5051751;28;20363;-80
2021/07/25 03:16:18;;;;;;;16.63;10.55;;;;;;;19.53;100.00;97499.50;5051067;28;20390;-77
2021/07/25 03:18:44;;;;;;;14.70;10.38;;;;;;;19.52;100.00;97497.88;5051512;28;20024;-78
2021/07/25 03:21:09;;;;;;;12.82;10.43;;;;;;;19.47;100.00;97498.19;5052581;28;20032;-78
2021/07/25 03:23:35;;;;;;;14.02;9.95;;;;;;;19.53;99.77;97507.00;5051637;28;20036;-79
2021/07/25 03:26:00;;;;;;;15.88;9.88;;;;;;;19.55;99.02;97510.22;5051636;28;20024;-81
2021/07/25 03:28:26;;;;;;;10.57;9.43;;;;;;;19.48;99.12;97502.56;5046812;28;20044;-79
2021/07/25 03:30:51;;;;;;;11.52;9.82;;;;;;;19.45;100.00;97505.28;5055205;28;20365;-77
2021/07/25 03:33:17;;;;;;;13.52;9.32;;;;;;;19.41;100.00;97498.84;5072250;28;20103;-80
2021/07/25 03:35:43;;;;;;;15.02;10.05;;;;;;;19.39;100.00;97503.91;5052947;28;21504;-79
2021/07/25 03:38:09;;;;;;;13.90;10.25;;;;;;;19.38;100.00;97510.63;5051402;28;20021;-78
2021/07/25 03:40:35;;;;;;;13.45;10.15;;;;;;;19.37;100.00;97504.28;5052460;28;20087;-80
2021/07/25 03:43:00;;;;;;;18.00;10.25;;;;;;;19.40;100.00;97514.66;5052101;28;20370;-79
2021/07/25 03:45:26;;;;;;;14.02;11.60;;;;;;;19.38;100.00;97518.94;5052318;28;20017;-80
2021/07/25 03:47:52;;;;;;;14.55;10.82;;;;;;;19.32;100.00;97506.53;5069444;28;20063;-80
2021/07/25 03:50:17;;;;;;;14.27;10.52;;;;;;;19.25;100.00;97505.22;5069934;28;20613;-78
2021/07/25 03:52:43;;;;;;;12.30;10.98;;;;;;;19.22;100.00;97508.72;5060557;28;20026;-80
2021/07/25 03:55:09;;;;;;;14.82;11.07;;;;;;;19.19;100.00;97506.66;5058917;28;20449;-79
2021/07/25 03:57:35;;;;;;;12.27;9.30;;;;;;;19.22;100.00;97519.00;5070668;28;20032;-78
2021/07/25 04:00:02;;;;;;;13.90;10.93;;;;;;;19.18;100.00;97527.25;5056880;28;20477;-79
2021/07/25 04:02:28;;;;;;;13.35;10.98;;;;;;;19.20;100.00;97524.13;5051108;28;20033;-79
2021/07/25 04:04:53;;;;;;;14.45;10.27;;;;;;;19.16;100.00;97518.50;5044585;28;20083;-79
2021/07/25 04:07:19;;;;;;;13.57;10.88;;;;;;;19.12;100.00;97511.25;5058228;28;20024;-79
2021/07/25 04:09:44;;;;;;;14.50;10.30;;;;;;;19.17;100.00;97511.75;5070489;28;20016;-78
2021/07/25 04:12:10;;;;;;;11.60;10.35;;;;;;;19.24;100.00;97511.13;5052325;28;20047;-78
2021/07/25 04:14:35;;;;;;;14.77;9.60;;;;;;;19.26;100.00;97500.47;5051936;28;20104;-77
2021/07/25 04:17:01;;;;;;;11.82;9.48;;;;;;;19.42;99.85;97514.31;5050164;28;20082;-79
2021/07/25 04:19:29;;;;;;;13.13;10.18;;;;;;;19.42;99.18;97494.91;5050238;28;20021;-78
2021/07/25 04:22:00;;;;;;;13.27;11.30;;;;;;;19.59;99.98;97520.25;5051682;28;20029;-78
2021/07/25 04:24:26;;;;;;;14.90;11.38;;;;;;;19.57;99.43;97527.31;5046914;28;20474;-79
2021/07/25 04:26:53;;;;;;;11.98;10.32;;;;;;;19.57;99.57;97535.66;5030611;28;20030;-77
2021/07/25 04:29:19;;;;;;;11.40;10.10;;;;;;;19.65;98.67;97520.75;5030291;28;20049;-78
2021/07/25 04:31:45;;;;;;;11.60;10.43;;;;;;;19.74;99.12;97529.66;5030098;28;20048;-79
2021/07/25 04:34:11;;;;;;;10.18;9.10;;;;;;;19.80;98.39;97533.75;5029917;28;20363;-80
2021/07/25 04:36:37;;;;;;;11.98;10.00;;;;;;;19.84;97.43;97531.03;5030991;28;20040;-78
2021/07/25 04:39:06;;;;;;;16.60;10.45;;;;;;;19.94;98.31;97536.00;5030264;28;20033;-79
2021/07/25 04:41:41;;;;;;;12.30;9.73;;;;;;;19.96;97.42;97537.25;5029803;28;20033;-79
2021/07/25 04:44:32;;;;;;;13.52;10.98;;;;;;;20.03;97.21;97545.72;5031346;28;20087;-78
2021/07/25 04:47:03;;;;;;;15.40;12.30;;;;;;;20.13;96.95;97547.91;5031059;28;20047;-80
2021/07/25 04:49:41;;;;;;;12.60;10.05;;;;;;;20.21;94.50;97552.41;5030709;28;20044;-80
2021/07/25 04:52:11;;;;;;;11.38;9.85;;;;;;;20.36;94.30;97547.16;5029737;28;20037;-78
2021/07/25 04:54:39;;;;;;;13.40;10.18;;;;;;;20.47;92.82;97551.75;5046089;28;20052;-89
2021/07/25 04:57:05;;;;;;;15.20;10.55;;;;;;;20.54;92.74;97549.09;5031399;28;20022;-80
2021/07/25 04:59:39;;;;;;;11.45;9.55;;;;;;;20.62;91.82;97544.44;5048358;28;20536;-79
2021/07/25 05:02:06;;;;;;;13.98;10.75;;;;;;;20.62;90.62;97555.56;5074281;28;20043;-79
2021/07/25 05:04:32;;;;;;;13.25;9.38;;;;;;;20.70;91.35;97546.19;5069829;28;20024;-79
2021/07/25 05:06:58;;;;;;;12.50;10.57;;;;;;;20.66;90.79;97551.69;5069878;28;20078;-79
2021/07/25 05:09:25;;;;;;;13.00;10.45;;;;;;;20.77;91.89;97557.41;5070907;28;20032;-80
2021/07/25 05:12:10;;;;;;;13.90;10.75;;;;;;;20.80;91.07;97551.09;5070704;28;20684;-79
2021/07/25 05:14:36;;;;;;;12.20;10.80;;;;;;;20.86;90.03;97552.41;5069316;28;20048;-77
2021/07/25 05:17:07;;;;;;;12.10;10.10;;;;;;;21.04;88.53;97547.94;5070917;28;20035;-83
2021/07/25 05:19:51;;;;;;;13.57;11.13;;;;;;;21.21;87.63;97553.00;5070900;28;20036;-81
2021/07/25 05:22:48;;;;;;;10.52;9.43;;;;;;;21.18;87.92;97550.97;5070696;28;20036;-80
2021/07/25 05:25:17;;;;;;;12.50;9.98;;;;;;;21.34;87.71;97565.50;5070639;28;20480;-81
2021/07/25 05:27:46;;;;;;;12.18;10.43;;;;;;;21.39;85.59;97560.81;5071108;28;20029;-78
2021/07/25 05:30:15;;;;;;;16.63;10.95;;;;;;;21.59;83.91;97567.84;5070644;28;20640;-79
2021/07/25 05:32:40;;;;;;;10.02;8.95;;;;;;;21.55;84.84;97558.66;5070749;28;20103;-80
2021/07/25 05:35:06;;;;;;;13.75;8.90;;;;;;;21.60;83.77;97563.88;5069292;28;20178;-82
2021/07/25 05:37:32;;;;;;;13.32;10.38;;;;;;;21.64;83.93;97567.53;5069741;28;20036;-79
2021/07/25 05:39:57;;;;;;;12.07;10.38;;;;;;;21.48;84.47;97562.13;5070434;28;20025;-80
2021/07/25 05:42:23;;;;;;;14.73;10.05;;;;;;;21.42;83.42;97555.28;5069052;28;20054;-82
2021/07/25 05:44:48;;;;;;;12.13;9.90;;;;;;;21.38;84.75;97568.34;5069674;28;20097;-81
2021/07/25 05:47:14;;;;;;;14.85;10.30;;;;;;;21.49;85.76;97568.50;5072242;28;20024;-80
2021/07/25 05:49:39;;;;;;;12.70;9.57;;;;;;;21.58;84.75;97569.03;5070413;28;20017;-79
2021/07/25 05:52:05;;;;;;;12.20;9.32;;;;;;;21.72;84.94;97574.78;5068838;28;20071;-79
2021/07/25 05:54:30;;;;;;;11.55;10.00;;;;;;;21.77;83.17;97578.03;5068719;28;20044;-80
2021/07/25 05:56:56;;;;;;;11.07;9.43;;;;;;;21.85;84.20;97570.59;5043332;28;20048;-79
2021/07/25 05:59:21;;;;;;;10.07;9.05;;;;;;;21.86;84.45;97569.41;5041656;28;20389;-80
2021/07/25 06:01:46;;;;;;;15.82;10.77;;;;;;;22.01;83.08;97576.78;5037055;28;20049;-79
2021/07/25 06:04:12;;;;;;;13.50;9.27;;;;;;;22.15;82.16;97584.50;5050266;28;20033;-83
2021/07/25 06:06:37;;;;;;;14.52;8.70;;;;;;;22.34;82.23;97579.56;5050137;28;20029;-83
2021/07/25 06:09:03;;;;;;;11.63;10.02;;;;;;;22.44;80.01;97580.88;5049145;28;20078;-79
2021/07/25 06:11:30;;;;;;;13.95;9.82;;;;;;;22.43;80.51;97577.25;5049857;28;20028;-77
2021/07/25 06:13:55;;;;;;;12.85;10.25;;;;;;;22.48;81.99;97578.13;5049754;28;20025;-79
2021/07/25 06:16:21;;;;;;;10.88;7.57;;;;;;;22.48;81.25;97572.53;5050255;28;20091;-79
2021/07/25 06:18:48;;;;;;;10.73;8.23;;;;;;;22.62;79.62;97578.25;5050198;28;20140;-81
2021/07/25 06:21:18;;;;;;;10.55;8.27;;;;;;;22.67;77.30;97573.19;5050909;28;20063;-83
2021/07/25 06:23:48;;;;;;;11.63;10.10;;;;;;;22.63;77.52;97566.72;5051018;28;20021;-81
2021/07/25 06:26:13;;;;;;;11.77;10.27;;;;;;;22.57;77.90;97571.03;5050338;28;20477;-83
2021/07/25 06:28:39;;;;;;;13.18;9.82;;;;;;;22.51;76.67;97572.59;5049936;28;20103;-81
2021/07/25 06:31:08;;;;;;;10.80;8.02;;;;;;;22.53;78.94;97572.19;5049655;28;20056;-78
2021/07/25 06:33:33;;;;;;;9.55;7.88;;;;;;;22.61;78.45;97573.88;5052345;28;20108;-82
2021/07/25 06:35:59;;;;;;;9.70;8.70;;;;;;;22.64;77.83;97573.09;5054447;28;20111;-73
2021/07/25 06:38:24;;;;;;;13.88;9.43;;;;;;;22.71;77.82;97570.44;5050835;28;20029;-73
2021/07/25 06:40:52;;;;;;;11.55;9.70;;;;;;;22.79;77.25;97572.88;5050027;28;20048;-75
2021/07/25 06:43:18;;;;;;;9.13;8.23;;;;;;;22.94;79.20;97573.81;5050631;28;20658;-76
2021/07/25 06:45:44;;;;;;;15.18;9.52;;;;;;;23.08;76.58;97568.34;5047494;28;20036;-73
2021/07/25 06:48:24;;;;;;;9.45;8.13;;;;;;;23.20;75.64;97570.84;5040805;28;20033;-74
2021/07/25 06:50:51;;;;;;;12.35;9.40;;;;;;;23.23;75.98;97570.06;5059510;28;20036;-75
2021/07/25 06:53:18;;;;;;;15.57;8.93;;;;;;;23.28;74.26;97572.47;5067100;28;20178;-73
2021/07/25 06:55:44;;;;;;;11.27;10.07;;;;;;;23.35;75.40;97574.53;5062046;28;20045;-75
2021/07/25 06:58:10;;;;;;;11.02;9.20;;;;;;;23.34;76.49;97564.53;5052344;28;20036;-72
2021/07/25 07:00:35;;;;;;;11.13;9.02;;;;;;;23.41;75.96;97564.63;5050704;28;20036;-72
2021/07/25 07:03:01;;;;;;;11.48;10.15;;;;;;;23.50;75.98;97555.88;5052453;28;20033;-73
2021/07/25 07:05:29;;;;;;;10.77;8.80;;;;;;;23.62;73.99;97558.38;5052450;28;20017;-74
2021/07/25 07:07:56;;;;;;;11.70;10.15;;;;;;;23.76;73.21;97558.44;5052915;28;20110;-73
2021/07/25 07:10:28;;;;;;;10.68;9.48;;;;;;;23.79;72.43;97557.66;5051387;28;20035;-73
2021/07/25 07:12:55;;;;;;;9.98;8.93;;;;;;;23.80;74.45;97559.25;5050289;28;20017;-73
2021/07/25 07:15:22;;;;;;;13.48;8.80;;;;;;;23.89;75.06;97557.72;5051596;28;20064;-73
2021/07/25 07:17:50;;;;;;;10.40;8.93;;;;;;;24.10;71.19;97561.78;5052962;28;20058;-73
2021/07/25 07:20:15;;;;;;;12.90;9.77;;;;;;;24.18;69.94;97553.06;5052894;28;20039;-73
2021/07/25 07:22:41;;;;;;;9.98;8.73;;;;;;;24.17;70.47;97543.06;5052955;28;20104;-73
2021/07/25 07:25:08;;;;;;;11.93;9.25;;;;;;;24.21;68.99;97549.50;5052696;28;20033;-72
2021/07/25 07:27:36;;;;;;;10.88;9.52;;;;;;;24.25;69.12;97553.06;5050460;28;20020;-73
2021/07/25 07:30:04;;;;;;;10.30;8.40;;;;;;;24.26;68.92;97551.88;5051462;28;20071;-73
2021/07/25 07:32:29;;;;;;;11.88;8.80;;;;;;;24.45;69.21;97540.34;5051943;28;20059;-76
2021/07/25 07:34:54;;;;;;;13.23;9.80;;;;;;;24.53;68.73;97553.13;5053075;28;20052;-74
2021/07/25 07:37:20;;;;;;;11.18;9.02;;;;;;;24.58;68.91;97559.56;5053045;28;20111;-73
2021/07/25 07:39:45;;;;;;;10.73;9.07;;;;;;;24.59;66.97;97552.78;5052044;28;20389;-74
2021/07/25 07:42:12;;;;;;;13.32;9.57;;;;;;;24.66;68.31;97550.75;5051601;28;20029;-75
2021/07/25 07:44:39;;;;;;;12.52;9.05;;;;;;;24.71;68.86;97552.38;5050139;28;20025;-73
2021/07/25 07:47:05;;;;;;;11.05;9.95;;;;;;;24.88;65.59;97540.41;5050497;28;20094;-73
2021/07/25 07:49:30;;;;;;;10.55;8.82;;;;;;;24.85;65.48;97539.22;5051324;28;20016;-74
2021/07/25 07:51:56;;;;;;;15.20;8.20;;;;;;;24.96;65.17;97539.25;5050584;28;20059;-75
2021/07/25 07:54:21;;;;;;;10.98;8.45;;;;;;;25.06;66.41;97541.22;5049678;28;20103;-73
2021/07/25 07:56:47;;;;;;;9.82;7.93;;;;;;;25.07;65.50;97536.41;5051618;28;20035;-73
2021/07/25 07:59:12;;;;;;;10.57;9.38;;;;;;;25.18;63.82;97537.22;5051967;28;20133;-73
2021/07/25 08:01:38;;;;;;;11.38;9.35;;;;;;;25.17;65.00;97532.81;5050055;28;20033;-73
2021/07/25 08:04:03;;;;;;;14.07;9.30;;;;;;;25.28;66.33;97531.59;5050415;28;20393;-74
2021/07/25 08:06:29;;;;;;;10.30;8.85;;;;;;;25.56;63.78;97531.56;5052527;28;20096;-74
2021/07/25 08:08:55;;;;;;;10.20;7.85;;;;;;;25.61;64.04;97533.16;5052034;28;20127;-73
2021/07/25 08:11:20;;;;;;;11.57;8.05;;;;;;;25.85;65.89;97525.88;5051033;28;20119;-73
2021/07/25 08:13:46;;;;;;;10.68;8.02;;;;;;;25.98;65.11;97522.22;5052615;28;20025;-74
2021/07/25 08:16:12;;;;;;;11.48;9.10;;;;;;;26.21;62.74;97529.34;5052124;28;20116;-74
2021/07/25 08:18:37;;;;;;;12.20;8.32;;;;;;;26.40;60.42;97526.84;5050907;28;20016;-76
2021/07/25 08:21:04;;;;;;;11.05;9.10;;;;;;;26.40;60.34;97529.66;5050069;28;20061;-74
2021/07/25 08:23:29;;;;;;;12.18;8.25;;;;;;;26.60;60.91;97533.50;5056373;28;20017;-87
2021/07/25 08:25:55;;;;;;;12.77;8.50;;;;;;;26.70;59.50;97531.84;5060617;28;20009;-87
2021/07/25 08:28:20;;;;;;;8.57;7.53;;;;;;;26.95;58.92;97523.25;5054111;28;20027;-84
2021/07/25 08:30:45;;;;;;;10.95;8.20;;;;;;;27.06;59.67;97527.59;5053994;28;20025;-82
2021/07/25 08:33:11;;;;;;;9.00;7.97;;;;;;;27.20;57.74;97521.03;5052984;28;20048;-85
2021/07/25 08:35:36;;;;;;;13.38;9.98;;;;;;;27.04;58.37;97520.75;5052307;28;20025;-86
2021/07/25 08:38:02;;;;;;;9.88;8.10;;;;;;;27.12;58.79;97514.69;5051352;28;20028;-85
2021/07/25 08:40:31;;;;;;;11.43;8.43;;;;;;;27.42;57.59;97522.41;5052054;28;20025;-87
2021/07/25 08:43:03;;;;;;;10.85;8.65;;;;;;;27.43;57.88;97520.44;5050958;28;20501;-86
2021/07/25 08:45:29;;;;;;;15.20;10.60;;;;;;;27.49;56.75;97516.75;5051274;28;20033;-84
2021/07/25 08:48:03;;;;;;;10.93;8.48;;;;;;;27.74;56.39;97524.91;5051528;28;20028;-87
2021/07/25 08:50:31;;;;;;;11.50;8.88;;;;;;;27.68;56.35;97523.78;5053688;28;20041;-88
2021/07/25 08:53:02;;;;;;;9.27;7.32;;;;;;;27.65;56.36;97522.59;5052176;28;20040;-84
2021/07/25 08:55:27;;;;;;;10.38;8.18;;;;;;;27.73;56.13;97520.50;5050882;28;20053;-88
2021/07/25 08:57:53;;;;;;;8.25;7.45;;;;;;;27.79;56.34;97507.56;5052039;28;20029;-87
2021/07/25 09:00:21;;;;;;;14.73;9.05;;;;;;;27.79;55.27;97509.56;5052226;28;20045;-86
2021/07/25 09:02:48;;;;;;;9.40;7.03;;;;;;;27.95;55.49;97506.97;5051897;28;20086;-87
2021/07/25 09:05:14;;;;;;;8.95;7.85;;;;;;;27.85;55.47;97517.13;5052288;28;20051;-87
2021/07/25 09:07:41;;;;;;;8.90;8.00;;;;;;;27.66;55.63;97521.38;5052949;28;20029;-85
2021/07/25 09:10:13;;;;;;;11.70;8.35;;;;;;;27.64;55.51;97518.19;5035005;28;20039;-85
2021/07/25 09:12:39;;;;;;;12.48;9.00;;;;;;;27.71;56.56;97511.69;5051355;28;20025;-87
2021/07/25 09:15:11;;;;;;;11.75;8.00;;;;;;;27.94;54.85;97514.59;5051858;28;20382;-87
2021/07/25 09:17:38;;;;;;;10.57;7.18;;;;;;;27.97;54.58;97518.63;5052115;28;20078;-88
2021/07/25 09:20:46;;;;;;;8.35;6.68;;;;;;;27.98;54.21;97523.00;5051829;28;20079;-88
2021/07/25 09:23:13;;;;;;;7.68;6.22;;;;;;;28.06;54.74;97522.56;5064217;28;20048;-88
2021/07/25 09:25:41;;;;;;;8.52;6.63;;;;;;;28.28;54.51;97516.63;5051390;28;20473;-88
2021/07/25 09:28:07;;;;;;;7.93;6.53;;;;;;;28.41;53.17;97509.22;5052506;28;20108;-90
2021/07/25 09:30:33;;;;;;;11.55;6.47;;;;;;;28.28;53.27;97511.81;5051696;28;20071;-85
2021/07/25 09:33:00;;;;;;;7.75;6.95;;;;;;;28.30;53.44;97509.34;5052651;28;20029;-88
2021/07/25 09:35:30;;;;;;;9.40;6.22;;;;;;;28.38;53.47;97508.03;5052932;28;20028;-89
2021/07/25 09:38:09;;;;;;;7.30;6.45;;;;;;;28.38;53.11;97499.59;5067397;28;20107;-90
2021/07/25 09:40:37;;;;;;;10.77;6.85;;;;;;;28.54;53.17;97502.56;5051167;28;20036;-90
2021/07/25 09:43:21;;;;;;;8.18;7.03;;;;;;;28.78;52.51;97505.47;5069181;28;20092;-88
2021/07/25 09:45:58;;;;;;;8.52;6.03;;;;;;;28.97;52.02;97497.09;5051698;28;20160;-89
2021/07/25 09:48:34;;;;;;;10.65;6.38;;;;;;;29.21;51.49;97503.50;5053193;28;20068;-89
2021/07/25 09:51:02;;;;;;;8.00;6.93;;;;;;;29.23;51.83;97498.22;5054961;28;20053;-87
2021/07/25 09:53:44;;;;;;;13.18;6.97;;;;;;;29.38;50.78;97493.97;5066241;28;20037;-87
2021/07/25 09:56:18;;;;;;;12.52;6.60;;;;;;;29.41;50.49;97493.13;5054352;28;20041;-87
2021/07/25 09:58:44;;;;;;;8.82;5.63;;;;;;;29.46;50.39;97486.97;5051883;28;20036;-88
2021/07/25 10:01:10;;;;;;;7.85;6.40;;;;;;;29.42;49.37;97479.78;5051369;28;20035;-88
2021/07/25 10:03:36;;;;;;;7.80;6.13;;;;;;;29.70;49.41;97488.50;5052066;28;20025;-87
2021/07/25 10:06:22;;;;;;;10.25;5.93;;;;;;;29.75;47.69;97478.75;5053166;28;20090;-86
2021/07/25 10:09:06;;;;;;;7.43;6.30;;;;;;;29.68;49.04;97470.44;5053041;28;20040;-88
2021/07/25 10:11:32;;;;;;;9.10;6.28;;;;;;;29.68;49.40;97474.06;5053439;28;20116;-88
2021/07/25 10:13:57;;;;;;;8.70;5.60;;;;;;;29.79;48.26;97468.16;5052058;28;20035;-88
2021/07/25 10:16:23;;;;;;;6.93;6.07;;;;;;;30.00;47.13;97461.34;5051976;28;20167;-89
2021/07/25 10:18:49;;;;;;;6.20;5.60;;;;;;;29.95;47.42;97459.81;5053283;28;20033;-88
2021/07/25 10:21:15;;;;;;;7.10;6.20;;;;;;;29.95;47.98;97468.28;5062208;28;20029;-87
2021/07/25 10:23:47;;;;;;;7.93;5.70;;;;;;;30.07;47.49;97461.19;5051876;28;20022;-87
2021/07/25 10:26:12;;;;;;;8.57;6.15;;;;;;;30.26;45.50;97451.88;5053687;28;20114;-88
2021/07/25 10:28:41;;;;;;;8.93;4.95;;;;;;;30.22;46.23;97451.16;5056325;28;20021;-90
2021/07/25 10:31:07;;;;;;;5.85;5.25;;;;;;;30.40;46.56;97445.94;5055694;28;20040;-89
2021/07/25 10:33:35;;;;;;;7.38;5.30;;;;;;;30.50;45.74;97444.88;5056168;28;20029;-89
2021/07/25 10:36:02;;;;;;;7.70;5.57;;;;;;;30.43;45.34;97433.75;5057161;28;20096;-88
2021/07/25 10:38:28;;;;;;;10.70;6.07;;;;;;;30.41;45.85;97426.97;5056658;28;20572;-88
2021/07/25 10:40:54;;;;;;;5.65;4.93;;;;;;;30.49;46.01;97420.69;5055290;28;20029;-85
2021/07/25 10:43:25;;;;;;;6.60;5.10;;;;;;;30.69;45.97;97432.72;5056670;28;21290;-89
2021/07/25 10:46:22;;;;;;;6.65;4.90;;;;;;;30.78;45.27;97429.25;5054845;28;20076;-88
2021/07/25 10:49:00;;;;;;;9.88;5.88;;;;;;;31.01;44.67;97423.47;5054201;28;20044;-86
2021/07/25 10:51:26;;;;;;;5.90;4.93;;;;;;;30.99;44.04;97422.28;5054032;28;20496;-87
2021/07/25 10:53:52;;;;;;;6.50;5.00;;;;;;;30.92;44.69;97416.81;5053780;28;20037;-86
2021/07/25 10:56:55;;;;;;;8.65;5.13;;;;;;;31.04;44.36;97421.78;5053924;28;20063;-87
2021/07/25 10:59:46;;;;;;;9.75;5.57;;;;;;;31.11;44.29;97413.88;5054023;28;20028;-87
2021/07/25 11:02:24;;;;;;;8.98;5.32;;;;;;;31.03;43.20;97414.53;5053884;28;20040;-86
2021/07/25 11:04:55;;;;;;;6.57;4.75;;;;;;;31.21;43.00;97420.47;5055155;28;20534;-87
2021/07/25 11:07:24;;;;;;;5.88;5.28;;;;;;;31.22;43.12;97422.09;5054285;28;20078;-85
2021/07/25 11:09:56;;;;;;;5.85;4.75;;;;;;;31.20;43.36;97425.34;5055201;28;20112;-88
2021/07/25 11:12:21;;;;;;;6.50;5.32;;;;;;;31.05;43.38;97417.69;5054158;28;20033;-89
2021/07/25 11:14:55;;;;;;;8.45;5.38;;;;;;;31.27;42.85;97427.19;5054921;28;20482;-73
2021/07/25 11:17:45;;;;;;;5.72;5.13;;;;;;;31.19;42.92;97426.59;5051823;28;20025;-74
2021/07/25 11:20:51;;;;;;;6.63;5.55;;;;;;;31.30;42.91;97429.91;5033028;28;20371;-75
2021/07/25 11:23:19;;;;;;;8.57;5.20;;;;;;;31.20;41.57;97435.88;5046279;28;20033;-73
2021/07/25 11:25:45;;;;;;;8.68;5.03;;;;;;;31.17;42.09;97426.22;5052910;28;20027;-78
2021/07/25 11:28:10;;;;;;;8.60;5.40;;;;;;;31.27;42.19;97422.31;5051402;28;20120;-78